Time;durP1;ratioP1;P1;durP2;ratioP2;P2;SDS_P1;SDS_P2;PMS_P1;PMS_P2;Temp;Humidity;BMP_temperature;BMP_pressure;BME280_temperature;BME280_humidity;BME280_pressure;Samples;Min_cycle;Max_cycle;Signal;HPM_P1;HPM_P2
2023/08/25 00:02:18;;;;;;;1.35;1.02;;;19.00;99.90;;;;;;5039672;28;20066;-68
2023/08/25 00:04:43;;;;;;;7.00;3.13;;;18.90;99.90;;;;;;5054092;28;20047;-68
2023/08/25 00:07:09;;;;;;;1.17;1.08;;;18.90;99.90;;;;;;5043439;28;20029;-69
2023/08/25 00:09:35;;;;;;;1.70;1.05;;;18.90;99.90;;;;;;5042899;28;20091;-68
2023/08/25 00:12:01;;;;;;;0.82;0.80;;;18.90;99.90;;;;;;5039095;28;20037;-68
2023/08/25 00:14:27;;;;;;;2.05;1.00;;;18.90;99.90;;;;;;5023258;28;20442;-69
2023/08/25 00:16:52;;;;;;;0.98;0.63;;;18.90;99.90;;;;;;5039955;28;20052;-68
2023/08/25 00:19:18;;;;;;;1.23;1.08;;;18.80;99.90;;;;;;5038707;28;20037;-68
2023/08/25 00:21:45;;;;;;;6.13;2.47;;;18.80;99.90;;;;;;5040815;28;20095;-68
2023/08/25 00:24:10;;;;;;;1.63;1.52;;;18.90;99.90;;;;;;5042979;28;20123;-69
2023/08/25 00:26:37;;;;;;;7.82;2.95;;;18.90;99.90;;;;;;5043943;28;20115;-70
2023/08/25 00:29:03;;;;;;;0.70;0.40;;;18.90;99.90;;;;;;5042359;28;20428;-69
2023/08/25 00:31:35;;;;;;;3.92;2.03;;;18.90;99.90;;;;;;5043715;28;20140;-68
2023/08/25 00:34:02;;;;;;;1.45;0.80;;;18.90;99.90;;;;;;5042287;28;20037;-69
2023/08/25 00:36:28;;;;;;;2.95;1.58;;;19.00;99.90;;;;;;5040817;28;20400;-69
2023/08/25 00:38:54;;;;;;;2.03;1.40;;;19.00;99.90;;;;;;5045214;28;20048;-69
2023/08/25 00:41:19;;;;;;;2.70;1.88;;;19.10;99.90;;;;;;5042965;28;20044;-69
2023/08/25 00:43:45;;;;;;;0.90;0.88;;;19.10;99.90;;;;;;5075046;28;20396;-69
2023/08/25 00:46:12;;;;;;;1.98;1.88;;;19.10;99.90;;;;;;5042663;28;20506;-69
2023/08/25 00:48:39;;;;;;;1.02;0.77;;;19.10;99.90;;;;;;5039224;28;20049;-69
2023/08/25 00:51:06;;;;;;;1.50;0.82;;;19.10;99.90;;;;;;5041613;28;20041;-69
2023/08/25 00:53:33;;;;;;;2.28;1.60;;;19.10;99.90;;;;;;5043622;28;20506;-69
2023/08/25 00:56:00;;;;;;;0.82;0.63;;;19.00;99.90;;;;;;5041419;28;20383;-69
2023/08/25 00:58:25;;;;;;;2.95;1.60;;;19.00;99.90;;;;;;5043729;28;20036;-68
2023/08/25 01:00:53;;;;;;;1.02;1.02;;;19.00;99.90;;;;;;5038527;28;20051;-69
2023/08/25 01:03:19;;;;;;;0.95;0.93;;;19.00;99.90;;;;;;5043385;28;20203;-69
2023/08/25 01:05:48;;;;;;;6.35;2.50;;;19.00;99.90;;;;;;5041522;28;20088;-69
2023/08/25 01:08:19;;;;;;;1.60;1.42;;;19.00;99.90;;;;;;5079297;28;20076;-69
2023/08/25 01:11:10;;;;;;;0.65;0.65;;;19.10;99.90;;;;;;5042964;28;20392;-69
2023/08/25 01:13:52;;;;;;;2.95;2.22;;;19.00;99.90;;;;;;5045749;28;20053;-68
2023/08/25 01:16:25;;;;;;;3.08;1.27;;;19.10;99.90;;;;;;5077467;28;20168;-69
2023/08/25 01:18:51;;;;;;;2.08;1.33;;;19.10;99.90;;;;;;5077442;28;20052;-68
2023/08/25 01:21:17;;;;;;;0.85;0.80;;;19.10;99.90;;;;;;5047928;28;20040;-69
2023/08/25 01:23:48;;;;;;;2.88;1.50;;;19.10;99.90;;;;;;5046728;28;20564;-69
2023/08/25 01:26:15;;;;;;;2.13;1.65;;;19.10;99.90;;;;;;5040600;28;20041;-70
2023/08/25 01:28:41;;;;;;;4.57;2.58;;;19.10;99.90;;;;;;5044904;28;20037;-69
2023/08/25 01:31:06;;;;;;;2.35;2.10;;;19.10;99.90;;;;;;5060804;28;20530;-69
2023/08/25 01:33:33;;;;;;;2.92;1.35;;;19.10;99.90;;;;;;5058680;28;20065;-70
2023/08/25 01:36:01;;;;;;;1.15;0.85;;;19.00;99.90;;;;;;5043580;28;20063;-69
2023/08/25 01:38:50;;;;;;;7.00;2.63;;;19.00;99.90;;;;;;5039295;28;20050;-69
2023/08/25 01:41:27;;;;;;;15.90;2.00;;;19.00;99.90;;;;;;5042683;28;20056;-69
2023/08/25 01:43:54;;;;;;;2.55;1.50;;;19.00;99.90;;;;;;5074995;28;20044;-68
2023/08/25 01:46:21;;;;;;;2.38;1.83;;;19.10;99.90;;;;;;5047144;28;20037;-68
2023/08/25 01:48:51;;;;;;;2.22;1.85;;;19.10;99.90;;;;;;5036061;28;20365;-69
2023/08/25 01:51:17;;;;;;;3.70;1.85;;;19.10;99.90;;;;;;5047127;28;20034;-68
2023/08/25 01:53:44;;;;;;;4.65;1.77;;;19.00;99.90;;;;;;5043630;28;20036;-68
2023/08/25 01:56:10;;;;;;;1.48;1.38;;;19.00;99.90;;;;;;5041370;28;20048;-68
2023/08/25 01:58:35;;;;;;;2.03;1.83;;;19.10;99.90;;;;;;5045952;28;20033;-68
2023/08/25 02:01:01;;;;;;;2.42;2.22;;;19.10;99.90;;;;;;5041612;28;20505;-69
2023/08/25 02:03:26;;;;;;;7.63;2.45;;;19.00;99.90;;;;;;5046718;28;21232;-68
2023/08/25 02:05:52;;;;;;;1.55;1.05;;;19.00;99.90;;;;;;5044775;28;20041;-69
2023/08/25 02:08:17;;;;;;;3.92;3.00;;;19.00;99.90;;;;;;5044559;28;20041;-68
2023/08/25 02:10:44;;;;;;;2.78;1.80;;;18.90;99.90;;;;;;5043955;28;20472;-68
2023/08/25 02:13:09;;;;;;;4.63;2.33;;;18.90;99.90;;;;;;5080375;28;20068;-68
2023/08/25 02:15:35;;;;;;;4.18;2.33;;;18.80;99.90;;;;;;5047589;28;20068;-68
2023/08/25 02:18:01;;;;;;;3.45;1.83;;;18.90;99.90;;;;;;5044159;28;20136;-67
2023/08/25 02:20:26;;;;;;;2.63;1.83;;;18.90;99.90;;;;;;5043751;28;20486;-68
2023/08/25 02:22:52;;;;;;;1.95;1.33;;;18.90;99.90;;;;;;5043492;28;20041;-69
2023/08/25 02:25:17;;;;;;;2.95;1.48;;;18.90;99.90;;;;;;5044251;28;20060;-68
2023/08/25 02:27:43;;;;;;;5.60;2.30;;;18.80;99.90;;;;;;5045421;28;20137;-68
2023/08/25 02:30:09;;;;;;;1.65;1.50;;;18.80;99.90;;;;;;5041442;28;20077;-68
2023/08/25 02:32:35;;;;;;;4.97;2.40;;;18.80;99.90;;;;;;5045157;28;20748;-68
2023/08/25 02:35:00;;;;;;;4.22;1.95;;;18.80;99.90;;;;;;5076902;28;20052;-68
2023/08/25 02:37:26;;;;;;;6.07;2.60;;;18.80;99.90;;;;;;5043211;28;20515;-68
2023/08/25 02:39:52;;;;;;;2.60;2.40;;;18.80;99.90;;;;;;5041465;28;20053;-68
2023/08/25 02:42:17;;;;;;;14.77;1.95;;;18.70;99.90;;;;;;5040279;28;20040;-68
2023/08/25 02:44:43;;;;;;;5.53;3.83;;;18.70;99.90;;;;;;5075992;28;20131;-68
2023/08/25 02:47:08;;;;;;;2.65;1.90;;;18.70;99.90;;;;;;5042883;28;20062;-68
2023/08/25 02:49:38;;;;;;;3.83;1.52;;;18.70;99.90;;;;;;5042375;28;20123;-68
2023/08/25 02:52:04;;;;;;;2.28;1.75;;;18.70;99.90;;;;;;5044412;28;20037;-68
2023/08/25 02:54:30;;;;;;;1.58;1.48;;;18.60;99.90;;;;;;5046473;28;20048;-68
2023/08/25 02:56:56;;;;;;;2.70;1.80;;;18.60;99.90;;;;;;5041231;28;20033;-68
2023/08/25 02:59:21;;;;;;;3.33;2.30;;;18.60;99.90;;;;;;5040477;28;20049;-68
2023/08/25 03:01:47;;;;;;;2.05;1.95;;;18.50;99.90;;;;;;5039487;28;20037;-68
2023/08/25 03:04:12;;;;;;;2.88;1.15;;;18.60;99.90;;;;;;5043626;28;20479;-68
2023/08/25 03:06:39;;;;;;;3.05;2.05;;;18.60;99.90;;;;;;5040483;28;20472;-68
2023/08/25 03:09:04;;;;;;;4.43;1.67;;;18.60;99.90;;;;;;5044214;28;20041;-68
2023/08/25 03:11:30;;;;;;;1.40;1.30;;;18.50;99.90;;;;;;5042581;28;20404;-69
2023/08/25 03:13:57;;;;;;;1.85;1.00;;;18.60;99.90;;;;;;5043066;28;20044;-69
2023/08/25 03:16:22;;;;;;;2.20;1.27;;;18.50;99.90;;;;;;5039954;28;20067;-69
2023/08/25 03:18:48;;;;;;;3.97;2.00;;;18.50;99.90;;;;;;5079396;28;20491;-69
2023/08/25 03:21:13;;;;;;;1.98;1.77;;;18.50;99.90;;;;;;5041842;28;20503;-69
2023/08/25 03:23:39;;;;;;;4.57;1.38;;;18.50;99.90;;;;;;5043023;28;20106;-69
2023/08/25 03:26:05;;;;;;;1.23;1.13;;;18.50;99.90;;;;;;5040932;28;20053;-69
2023/08/25 03:28:30;;;;;;;1.63;1.52;;;18.50;99.90;;;;;;5033885;28;20037;-69
2023/08/25 03:30:56;;;;;;;2.92;1.98;;;18.40;99.90;;;;;;5041846;28;20437;-69
2023/08/25 03:33:22;;;;;;;0.88;0.85;;;18.40;99.90;;;;;;5041563;28;20865;-69
2023/08/25 03:35:47;;;;;;;6.38;1.60;;;18.40;99.90;;;;;;5055515;28;20506;-69
2023/08/25 03:38:13;;;;;;;4.85;1.75;;;18.40;99.90;;;;;;5044335;28;20480;-69
2023/08/25 03:40:38;;;;;;;4.40;2.10;;;18.40;99.90;;;;;;5041663;28;20115;-69
2023/08/25 03:43:04;;;;;;;8.68;3.75;;;18.40;99.90;;;;;;5041956;28;20041;-69
2023/08/25 03:45:30;;;;;;;3.20;2.05;;;18.30;99.90;;;;;;5039943;28;20391;-69
2023/08/25 03:47:55;;;;;;;6.75;1.38;;;18.30;99.90;;;;;;5041499;28;20037;-69
2023/08/25 03:50:21;;;;;;;1.55;1.45;;;18.30;99.90;;;;;;5042350;28;20526;-69
2023/08/25 03:52:49;;;;;;;2.00;1.55;;;18.40;99.90;;;;;;5041629;28;20130;-68
2023/08/25 03:55:15;;;;;;;1.55;1.10;;;18.30;99.90;;;;;;5072000;28;20601;-69
2023/08/25 03:57:41;;;;;;;2.80;2.53;;;18.30;99.90;;;;;;5040473;28;20060;-69
2023/08/25 04:00:07;;;;;;;2.17;1.98;;;18.20;99.90;;;;;;5042799;28;20064;-69
2023/08/25 04:02:33;;;;;;;1.13;1.05;;;18.30;99.90;;;;;;5037315;28;20459;-69
2023/08/25 04:05:00;;;;;;;2.92;2.25;;;18.30;99.90;;;;;;5042956;28;20145;-69
2023/08/25 04:07:25;;;;;;;1.02;0.55;;;18.20;99.90;;;;;;5024662;28;20551;-69
2023/08/25 04:09:54;;;;;;;3.03;1.05;;;18.20;99.90;;;;;;5044666;28;20055;-69
2023/08/25 04:12:19;;;;;;;0.75;0.73;;;18.20;99.90;;;;;;5041373;28;20040;-69
2023/08/25 04:14:46;;;;;;;8.38;1.90;;;18.20;99.90;;;;;;5041973;28;20107;-70
2023/08/25 04:17:11;;;;;;;2.08;1.05;;;18.20;99.90;;;;;;5042301;28;20094;-69
2023/08/25 04:19:37;;;;;;;3.53;1.55;;;18.10;99.90;;;;;;5045216;28;20044;-69
2023/08/25 04:22:03;;;;;;;0.90;0.85;;;18.10;99.90;;;;;;5042204;28;20045;-69
2023/08/25 04:24:29;;;;;;;2.50;1.25;;;18.10;99.90;;;;;;5075983;28;20029;-69
2023/08/25 04:26:54;;;;;;;3.58;2.92;;;18.10;99.90;;;;;;5036861;28;20388;-69
2023/08/25 04:29:20;;;;;;;3.20;3.00;;;18.10;99.90;;;;;;5072319;28;20059;-69
2023/08/25 04:31:45;;;;;;;0.95;0.95;;;18.00;99.90;;;;;;5038278;28;20120;-69
2023/08/25 04:34:11;;;;;;;2.75;2.28;;;18.10;99.90;;;;;;5042230;28;20056;-69
2023/08/25 04:36:39;;;;;;;1.85;1.15;;;18.10;99.90;;;;;;5039043;28;20139;-69
2023/08/25 04:39:05;;;;;;;2.58;2.00;;;18.00;99.90;;;;;;5039173;28;20066;-69
2023/08/25 04:41:30;;;;;;;2.63;2.28;;;18.00;99.90;;;;;;5041306;28;20837;-68
2023/08/25 04:43:56;;;;;;;2.05;1.13;;;18.10;99.90;;;;;;5040166;28;20040;-69
2023/08/25 04:46:21;;;;;;;7.82;3.60;;;18.00;99.90;;;;;;5039124;28;20052;-69
2023/08/25 04:48:47;;;;;;;3.67;3.00;;;18.00;99.90;;;;;;5041027;28;20491;-69
2023/08/25 04:51:14;;;;;;;7.63;2.08;;;18.00;99.90;;;;;;5041373;28;20040;-69
2023/08/25 04:53:40;;;;;;;4.13;1.83;;;17.90;99.90;;;;;;5037230;28;20047;-69
2023/08/25 04:56:05;;;;;;;1.38;1.27;;;17.90;99.90;;;;;;5036369;28;20045;-69
2023/08/25 04:58:31;;;;;;;4.82;1.25;;;17.90;99.90;;;;;;5074354;28;20087;-68
2023/08/25 05:00:57;;;;;;;2.47;1.25;;;17.90;99.90;;;;;;5075331;28;20051;-69
2023/08/25 05:03:23;;;;;;;1.73;1.63;;;18.00;99.90;;;;;;5042616;28;20037;-68
2023/08/25 05:05:48;;;;;;;2.58;2.33;;;18.00;99.90;;;;;;5039570;28;20049;-68
2023/08/25 05:08:14;;;;;;;3.30;2.63;;;17.90;99.90;;;;;;5043283;28;20037;-69
2023/08/25 05:10:40;;;;;;;3.33;1.77;;;18.00;99.90;;;;;;5044710;28;20037;-68
2023/08/25 05:13:06;;;;;;;3.03;1.20;;;18.00;99.90;;;;;;5044622;28;20049;-69
2023/08/25 05:15:32;;;;;;;1.83;0.80;;;18.00;99.90;;;;;;5044863;28;20403;-69
2023/08/25 05:17:57;;;;;;;2.47;1.55;;;18.00;99.90;;;;;;5043193;28;20095;-69
2023/08/25 05:20:23;;;;;;;1.73;1.63;;;18.00;99.90;;;;;;5048585;28;20565;-69
2023/08/25 05:22:50;;;;;;;2.35;2.15;;;18.10;99.90;;;;;;5039070;28;20041;-68
2023/08/25 05:25:17;;;;;;;2.90;1.45;;;18.20;99.90;;;;;;5084779;28;20041;-69
2023/08/25 05:27:43;;;;;;;5.00;2.55;;;18.20;99.90;;;;;;5045886;28;20041;-69
2023/08/25 05:30:09;;;;;;;5.13;2.50;;;18.20;99.90;;;;;;5049191;28;20548;-68
2023/08/25 05:32:34;;;;;;;3.05;1.80;;;18.30;99.90;;;;;;5047984;28;20086;-68
2023/08/25 05:35:00;;;;;;;3.42;2.35;;;18.30;99.90;;;;;;5044659;28;20400;-68
2023/08/25 05:37:25;;;;;;;4.47;2.78;;;18.40;99.90;;;;;;5049643;28;20683;-68
2023/08/25 05:39:52;;;;;;;4.35;1.88;;;18.50;99.90;;;;;;5044255;28;20099;-69
2023/08/25 05:42:18;;;;;;;6.25;1.95;;;18.50;99.90;;;;;;5041098;28;20501;-68
2023/08/25 05:44:43;;;;;;;3.28;2.33;;;18.50;99.90;;;;;;5038403;28;20049;-68
2023/08/25 05:47:09;;;;;;;5.95;4.50;;;18.60;99.90;;;;;;5039460;28;20454;-69
2023/08/25 05:49:35;;;;;;;3.10;2.83;;;18.60;99.90;;;;;;5078003;28;20033;-68
2023/08/25 05:52:00;;;;;;;4.22;2.15;;;18.70;99.90;;;;;;5041287;28;20036;-68
2023/08/25 05:54:26;;;;;;;7.35;1.60;;;18.60;99.90;;;;;;5047265;28;20268;-69
2023/08/25 05:56:53;;;;;;;3.22;2.20;;;18.70;99.90;;;;;;5043068;28;20045;-68
2023/08/25 05:59:19;;;;;;;5.63;2.67;;;18.70;99.90;;;;;;5043352;28;20140;-69
2023/08/25 06:01:44;;;;;;;3.90;1.67;;;18.80;99.90;;;;;;5045185;28;20547;-68
2023/08/25 06:04:10;;;;;;;2.70;1.67;;;18.80;99.90;;;;;;5043971;28;20033;-69
2023/08/25 06:06:36;;;;;;;1.73;1.00;;;18.80;99.90;;;;;;5039756;28;20041;-69
2023/08/25 06:09:02;;;;;;;1.30;0.70;;;18.80;99.90;;;;;;5035266;28;20045;-68
2023/08/25 06:11:28;;;;;;;13.05;1.33;;;18.90;99.90;;;;;;5042959;28;20032;-69
2023/08/25 06:13:53;;;;;;;2.75;1.73;;;18.90;99.90;;;;;;5044819;28;20052;-69
2023/08/25 06:16:19;;;;;;;2.55;1.75;;;18.90;99.90;;;;;;5044511;28;20064;-69
2023/08/25 06:18:44;;;;;;;3.97;1.88;;;19.00;99.90;;;;;;5047000;28;20464;-69
2023/08/25 06:21:10;;;;;;;0.65;0.65;;;19.00;99.90;;;;;;5049582;28;20124;-69
2023/08/25 06:23:36;;;;;;;1.65;1.27;;;19.00;99.90;;;;;;5046264;28;20412;-69
2023/08/25 06:26:01;;;;;;;2.88;2.30;;;19.10;99.90;;;;;;5046186;28;20036;-69
2023/08/25 06:28:27;;;;;;;1.95;0.93;;;19.10;99.90;;;;;;5045214;28;20453;-69
2023/08/25 06:30:53;;;;;;;4.38;1.40;;;19.20;99.90;;;;;;5041910;28;20040;-69
2023/08/25 06:33:18;;;;;;;0.82;0.70;;;19.20;99.90;;;;;;5045513;28;20442;-69
2023/08/25 06:35:44;;;;;;;5.00;2.00;;;19.20;99.90;;;;;;5043410;28;20043;-69
2023/08/25 06:38:10;;;;;;;3.78;1.85;;;19.30;99.90;;;;;;5045414;28;20044;-69
2023/08/25 06:40:36;;;;;;;4.97;1.42;;;19.20;99.90;;;;;;5049300;28;20426;-69
2023/08/25 06:43:02;;;;;;;6.15;1.88;;;19.20;99.90;;;;;;5046933;28;20080;-69
2023/08/25 06:45:29;;;;;;;6.03;2.38;;;19.20;99.90;;;;;;5081282;28;20056;-69
2023/08/25 06:47:55;;;;;;;1.95;0.90;;;19.30;99.90;;;;;;5044297;28;20037;-69
2023/08/25 06:50:24;;;;;;;1.42;0.80;;;19.30;99.90;;;;;;5083351;28;20040;-69
2023/08/25 06:52:50;;;;;;;5.00;3.40;;;19.20;99.90;;;;;;5080281;28;20082;-69
2023/08/25 06:55:17;;;;;;;2.72;2.53;;;19.30;99.90;;;;;;5046665;28;20045;-69
2023/08/25 06:57:44;;;;;;;2.53;2.15;;;19.20;99.90;;;;;;5047877;28;20049;-69
2023/08/25 07:00:12;;;;;;;3.03;1.55;;;19.30;99.90;;;;;;5048280;28;20040;-68
2023/08/25 07:02:39;;;;;;;5.20;2.72;;;19.30;99.90;;;;;;5048699;28;20032;-69
2023/08/25 07:05:05;;;;;;;4.45;2.15;;;19.30;99.90;;;;;;5035686;28;20073;-68
2023/08/25 07:07:31;;;;;;;1.55;1.45;;;19.40;99.90;;;;;;5069493;28;20071;-69
2023/08/25 07:09:57;;;;;;;4.65;2.15;;;19.40;99.90;;;;;;5046387;28;20087;-69
2023/08/25 07:12:22;;;;;;;1.92;1.83;;;19.40;99.90;;;;;;5040573;28;20076;-69
2023/08/25 07:14:48;;;;;;;3.55;2.72;;;19.50;99.90;;;;;;5044059;28;20041;-68
2023/08/25 07:17:14;;;;;;;2.97;2.30;;;19.60;99.90;;;;;;5039194;28;20049;-68
2023/08/25 07:19:39;;;;;;;5.50;2.25;;;19.60;99.90;;;;;;5045738;28;20454;-68
2023/08/25 07:22:05;;;;;;;2.55;1.58;;;19.60;99.90;;;;;;5041328;28;20468;-68
2023/08/25 07:24:31;;;;;;;2.40;1.65;;;19.60;99.90;;;;;;5042456;28;20103;-68
2023/08/25 07:26:56;;;;;;;1.20;0.90;;;19.70;99.90;;;;;;5040399;28;20041;-69
2023/08/25 07:29:22;;;;;;;2.92;1.80;;;19.70;99.90;;;;;;5037939;28;20076;-68
2023/08/25 07:31:47;;;;;;;1.65;1.55;;;19.80;99.90;;;;;;5041231;28;20035;-69
2023/08/25 07:34:13;;;;;;;2.20;1.13;;;19.90;99.90;;;;;;5041457;28;20448;-69
2023/08/25 07:36:39;;;;;;;3.92;2.47;;;20.10;99.90;;;;;;5041230;28;20041;-69
2023/08/25 07:39:05;;;;;;;1.90;1.63;;;20.30;99.90;;;;;;5076721;28;20076;-70
2023/08/25 07:41:30;;;;;;;0.65;0.65;;;20.50;99.90;;;;;;5042793;28;20084;-68
2023/08/25 07:43:56;;;;;;;2.55;2.15;;;20.60;99.90;;;;;;5076228;28;20312;-69
2023/08/25 07:46:22;;;;;;;1.98;1.70;;;20.70;99.90;;;;;;5043761;28;20037;-69
2023/08/25 07:48:47;;;;;;;2.97;2.15;;;20.70;99.90;;;;;;5039176;28;20412;-68
2023/08/25 07:51:13;;;;;;;4.32;3.22;;;20.70;99.90;;;;;;5045190;28;20037;-69
2023/08/25 07:53:39;;;;;;;7.43;3.53;;;20.80;99.90;;;;;;5039121;28;20404;-69
2023/08/25 07:56:04;;;;;;;1.77;1.15;;;20.90;99.90;;;;;;5060687;28;20037;-69
2023/08/25 07:58:30;;;;;;;2.60;1.92;;;21.00;99.90;;;;;;5041897;28;20513;-69
2023/08/25 08:00:56;;;;;;;2.53;2.22;;;21.10;99.90;;;;;;5043833;28;20510;-69
2023/08/25 08:03:21;;;;;;;1.17;1.02;;;21.10;99.90;;;;;;5025977;28;20057;-69
2023/08/25 08:05:47;;;;;;;3.35;2.83;;;21.10;99.90;;;;;;5042974;28;20033;-69
2023/08/25 08:08:13;;;;;;;1.17;1.08;;;21.10;99.90;;;;;;5039522;28;20110;-69
2023/08/25 08:10:39;;;;;;;1.20;1.20;;;21.10;99.90;;;;;;5078059;28;20041;-69
2023/08/25 08:13:06;;;;;;;0.80;0.75;;;21.10;99.90;;;;;;5040825;28;20052;-69
2023/08/25 08:15:32;;;;;;;2.00;1.75;;;21.10;99.90;;;;;;5042051;28;20049;-69
2023/08/25 08:17:58;;;;;;;1.88;1.77;;;21.10;99.90;;;;;;5073500;28;20048;-69
2023/08/25 08:20:25;;;;;;;0.68;0.63;;;21.10;99.90;;;;;;5077834;28;20037;-68
2023/08/25 08:22:51;;;;;;;0.75;0.68;;;21.10;99.90;;;;;;5040592;28;20064;-69
2023/08/25 08:25:17;;;;;;;2.53;0.95;;;21.10;99.90;;;;;;5040448;28;20056;-69
2023/08/25 08:27:42;;;;;;;3.95;1.52;;;21.10;99.90;;;;;;5038427;28;20041;-69
2023/08/25 08:30:09;;;;;;;0.93;0.70;;;21.10;99.90;;;;;;5077295;28;20033;-68
2023/08/25 08:32:36;;;;;;;0.20;0.20;;;21.00;99.90;;;;;;5020224;28;20040;-69
2023/08/25 08:35:08;;;;;;;3.20;1.23;;;21.00;99.90;;;;;;5070773;28;20399;-68
2023/08/25 08:37:35;;;;;;;2.28;1.27;;;21.00;99.90;;;;;;5069888;28;20748;-69
2023/08/25 08:40:01;;;;;;;0.65;0.47;;;21.00;99.90;;;;;;5043142;28;20467;-69
2023/08/25 08:42:29;;;;;;;0.90;0.70;;;21.00;99.90;;;;;;5041268;28;20040;-68
2023/08/25 08:45:00;;;;;;;1.00;0.85;;;21.00;99.90;;;;;;5047295;28;20132;-69
2023/08/25 08:47:26;;;;;;;0.52;0.52;;;20.90;99.90;;;;;;5070427;28;20582;-69
2023/08/25 08:49:53;;;;;;;2.17;1.60;;;20.90;99.90;;;;;;5044074;28;20041;-69
2023/08/25 08:52:18;;;;;;;0.70;0.70;;;20.90;99.90;;;;;;5045951;28;20442;-68
2023/08/25 08:54:45;;;;;;;1.13;1.13;;;20.80;99.90;;;;;;5045775;28;20045;-68
2023/08/25 08:57:11;;;;;;;0.45;0.45;;;20.80;99.90;;;;;;5075920;28;20041;-68
2023/08/25 08:59:37;;;;;;;0.38;0.38;;;20.90;99.90;;;;;;5079828;28;20088;-68
2023/08/25 09:02:06;;;;;;;1.23;0.40;;;20.80;99.90;;;;;;5046064;28;20069;-68
2023/08/25 09:04:33;;;;;;;1.77;0.30;;;20.90;99.90;;;;;;5044029;28;20049;-68
2023/08/25 09:07:00;;;;;;;0.38;0.38;;;20.90;99.90;;;;;;5044089;28;20090;-68
2023/08/25 09:09:26;;;;;;;0.93;0.93;;;21.00;99.90;;;;;;5039029;28;20025;-68
2023/08/25 09:11:52;;;;;;;0.40;0.40;;;21.00;99.90;;;;;;5046145;28;20387;-68
2023/08/25 09:14:29;;;;;;;5.40;1.08;;;21.00;99.90;;;;;;5078730;28;20124;-69
2023/08/25 09:17:02;;;;;;;2.28;1.42;;;21.00;99.90;;;;;;5047051;28;20385;-69
2023/08/25 09:19:31;;;;;;;1.45;1.35;;;21.00;99.90;;;;;;5044489;28;20047;-68
2023/08/25 09:21:57;;;;;;;5.47;2.03;;;21.00;99.90;;;;;;5044585;28;20075;-69
2023/08/25 09:24:23;;;;;;;9.77;1.95;;;21.00;99.90;;;;;;5041032;28;20130;-68
2023/08/25 09:26:50;;;;;;;1.05;1.00;;;21.00;99.90;;;;;;5043556;28;20024;-68
2023/08/25 09:29:16;;;;;;;0.45;0.45;;;21.00;99.90;;;;;;5042596;28;20045;-68
2023/08/25 09:31:43;;;;;;;0.55;0.55;;;21.00;99.90;;;;;;5044471;28;20125;-68
2023/08/25 09:34:10;;;;;;;0.32;0.30;;;21.00;99.90;;;;;;5041809;28;20072;-68
2023/08/25 09:36:53;;;;;;;0.98;0.70;;;21.00;99.90;;;;;;5041654;28;20234;-68
2023/08/25 09:39:20;;;;;;;0.57;0.57;;;21.00;99.90;;;;;;5025326;28;20057;-68
2023/08/25 09:41:46;;;;;;;0.65;0.65;;;21.10;99.90;;;;;;5046292;28;21888;-68
2023/08/25 09:44:12;;;;;;;2.03;1.08;;;21.20;99.90;;;;;;5042488;28;20144;-68
2023/08/25 09:46:38;;;;;;;0.95;0.65;;;21.20;99.90;;;;;;5045042;28;20045;-68
2023/08/25 09:49:06;;;;;;;0.77;0.77;;;21.30;99.90;;;;;;5043870;28;20393;-69
2023/08/25 09:51:39;;;;;;;1.40;1.02;;;21.40;99.90;;;;;;5041808;28;20480;-68
2023/08/25 09:54:09;;;;;;;3.05;1.08;;;21.40;99.90;;;;;;5040804;28;20052;-69
2023/08/25 09:56:36;;;;;;;0.50;0.50;;;21.40;99.90;;;;;;5038534;28;20040;-68
2023/08/25 09:59:06;;;;;;;0.70;0.70;;;21.40;99.90;;;;;;5045614;28;20527;-68
2023/08/25 10:01:34;;;;;;;0.63;0.63;;;21.40;99.90;;;;;;5047490;28;20492;-68
2023/08/25 10:04:02;;;;;;;0.98;0.90;;;21.40;99.90;;;;;;5077345;28;20103;-68
2023/08/25 10:06:33;;;;;;;3.47;2.03;;;21.40;99.90;;;;;;5047982;28;20035;-68
2023/08/25 10:08:59;;;;;;;1.42;0.40;;;21.40;99.90;;;;;;5074275;28;20361;-69
2023/08/25 10:11:34;;;;;;;1.50;0.90;;;21.40;99.90;;;;;;5046475;28;20037;-69
2023/08/25 10:14:03;;;;;;;2.40;1.17;;;21.40;99.90;;;;;;5075100;28;20080;-68
2023/08/25 10:16:29;;;;;;;0.28;0.28;;;21.40;99.90;;;;;;5039841;28;20041;-68
2023/08/25 10:18:58;;;;;;;0.55;0.55;;;21.50;99.90;;;;;;5047738;28;20368;-68
2023/08/25 10:21:25;;;;;;;0.43;0.43;;;21.60;99.90;;;;;;5048938;28;20352;-68
2023/08/25 10:23:54;;;;;;;0.30;0.30;;;21.70;99.90;;;;;;5079102;28;20095;-68
2023/08/25 10:26:21;;;;;;;0.88;0.80;;;21.80;99.90;;;;;;5030098;28;20068;-69
2023/08/25 10:28:47;;;;;;;1.30;1.20;;;21.80;99.90;;;;;;5046972;28;20091;-68
2023/08/25 10:31:13;;;;;;;2.10;2.00;;;21.80;99.90;;;;;;5049380;28;20442;-68
2023/08/25 10:33:46;;;;;;;2.88;2.63;;;21.80;99.90;;;;;;5046156;28;20047;-68
2023/08/25 10:36:16;;;;;;;1.75;1.65;;;21.80;99.90;;;;;;5045875;28;20036;-68
2023/08/25 10:38:46;;;;;;;2.42;2.15;;;21.80;99.90;;;;;;5046395;28;20063;-68
2023/08/25 10:41:17;;;;;;;3.35;1.58;;;21.70;99.90;;;;;;5077731;28;20048;-68
2023/08/25 10:43:54;;;;;;;3.53;1.08;;;21.70;99.90;;;;;;5046131;28;20123;-68
2023/08/25 10:46:21;;;;;;;1.17;0.68;;;21.70;99.90;;;;;;5043048;28;20132;-69
2023/08/25 10:48:51;;;;;;;1.40;1.13;;;21.70;99.90;;;;;;5045199;28;20127;-68
2023/08/25 10:51:19;;;;;;;1.65;1.55;;;21.70;99.90;;;;;;5047260;28;20033;-68
2023/08/25 10:53:49;;;;;;;2.08;1.15;;;21.70;99.90;;;;;;5080213;28;20412;-69
2023/08/25 10:56:18;;;;;;;1.40;1.20;;;21.90;99.90;;;;;;5047925;28;20494;-69
2023/08/25 10:59:04;;;;;;;4.13;1.40;;;22.20;99.90;;;;;;5046803;28;20120;-69
2023/08/25 11:01:36;;;;;;;1.50;0.60;;;22.30;99.90;;;;;;5040169;28;20037;-69
2023/08/25 11:04:20;;;;;;;0.98;0.98;;;22.40;99.90;;;;;;5040077;28;20090;-68
2023/08/25 11:06:50;;;;;;;0.95;0.95;;;22.50;99.90;;;;;;5042778;28;20037;-69
2023/08/25 11:09:26;;;;;;;1.20;1.08;;;22.70;99.90;;;;;;5039057;28;20045;-69
2023/08/25 11:12:06;;;;;;;4.30;0.85;;;22.70;99.90;;;;;;5073277;28;20066;-68
2023/08/25 11:14:37;;;;;;;1.38;1.25;;;22.60;99.90;;;;;;5043176;28;20047;-68
2023/08/25 11:17:05;;;;;;;2.15;1.65;;;22.60;99.90;;;;;;5041208;28;20083;-68
2023/08/25 11:19:32;;;;;;;1.55;1.45;;;22.50;99.90;;;;;;5023810;28;20033;-69
2023/08/25 11:22:01;;;;;;;4.68;1.05;;;22.40;99.90;;;;;;5040118;28;20049;-69
2023/08/25 11:24:29;;;;;;;1.90;1.45;;;22.40;99.90;;;;;;5041756;28;20037;-68
2023/08/25 11:27:11;;;;;;;1.55;1.17;;;22.30;99.90;;;;;;5036125;28;20537;-69
2023/08/25 11:29:43;;;;;;;1.65;1.05;;;22.30;99.90;;;;;;5040272;28;20513;-68
2023/08/25 11:32:11;;;;;;;1.17;0.85;;;22.30;99.90;;;;;;5037054;28;20052;-68
2023/08/25 11:34:37;;;;;;;1.85;1.65;;;22.20;99.90;;;;;;5038899;28;20503;-68
2023/08/25 11:37:03;;;;;;;0.98;0.75;;;22.20;99.90;;;;;;5036201;28;20041;-68
2023/08/25 11:39:28;;;;;;;2.60;1.20;;;22.20;99.90;;;;;;5038810;28;20063;-68
2023/08/25 11:41:55;;;;;;;0.85;0.75;;;22.10;99.90;;;;;;5037231;28;20614;-68
2023/08/25 11:44:22;;;;;;;2.45;1.63;;;22.10;99.90;;;;;;5038818;28;20040;-68
2023/08/25 11:46:47;;;;;;;2.08;1.88;;;22.00;99.90;;;;;;5036334;28;20091;-68
2023/08/25 11:49:13;;;;;;;1.30;1.27;;;22.00;99.90;;;;;;5037518;28;20467;-68
2023/08/25 11:51:39;;;;;;;0.90;0.85;;;21.90;99.90;;;;;;5031923;28;20041;-68
2023/08/25 11:54:05;;;;;;;1.30;0.93;;;21.90;99.90;;;;;;5076410;28;20519;-68
2023/08/25 11:56:32;;;;;;;0.82;0.52;;;21.80;99.90;;;;;;5045509;28;20368;-68
2023/08/25 11:58:58;;;;;;;1.70;1.48;;;21.70;99.90;;;;;;5044222;28;20033;-68
2023/08/25 12:01:30;;;;;;;0.90;0.85;;;21.70;99.90;;;;;;5044910;28;20399;-68
2023/08/25 12:04:18;;;;;;;0.43;0.43;;;21.70;99.90;;;;;;5039445;28;20036;-68
2023/08/25 12:06:44;;;;;;;5.38;1.23;;;21.70;99.90;;;;;;5036805;28;20379;-68
2023/08/25 12:09:09;;;;;;;1.20;0.50;;;21.70;99.90;;;;;;5036021;28;20041;-68
2023/08/25 12:11:35;;;;;;;2.92;0.73;;;21.70;99.90;;;;;;5032592;28;20122;-68
2023/08/25 12:14:01;;;;;;;1.70;1.60;;;21.70;99.90;;;;;;5029266;28;20045;-68
2023/08/25 12:16:28;;;;;;;1.23;0.73;;;21.70;99.90;;;;;;5035980;28;20056;-68
2023/08/25 12:18:54;;;;;;;1.30;0.50;;;21.70;99.90;;;;;;5068837;28;20047;-70
2023/08/25 12:21:20;;;;;;;0.77;0.10;;;21.70;99.90;;;;;;5034440;28;20462;-70
2023/08/25 12:23:46;;;;;;;0.50;0.45;;;21.70;99.90;;;;;;5066982;28;20060;-68
2023/08/25 12:26:12;;;;;;;1.83;1.17;;;21.70;99.90;;;;;;5038714;28;20040;-67
2023/08/25 12:28:40;;;;;;;0.30;0.30;;;21.70;99.90;;;;;;5040967;28;20049;-70
2023/08/25 12:31:06;;;;;;;1.92;0.70;;;21.70;99.90;;;;;;5045414;28;20037;-73
2023/08/25 12:33:32;;;;;;;0.82;0.82;;;21.60;99.90;;;;;;5041713;28;20029;-71
2023/08/25 12:36:00;;;;;;;2.60;1.30;;;21.50;99.90;;;;;;5021323;28;20150;-70
2023/08/25 12:38:26;;;;;;;0.75;0.50;;;21.40;99.90;;;;;;5023791;28;20514;-69
2023/08/25 12:40:52;;;;;;;0.20;0.20;;;21.20;99.90;;;;;;5074934;28;20312;-68
2023/08/25 12:43:17;;;;;;;3.25;0.60;;;21.10;99.90;;;;;;5040820;28;20041;-68
2023/08/25 12:45:43;;;;;;;0.85;0.85;;;21.00;99.90;;;;;;5036990;28;20403;-69